Aviation Digital Data Service (ADDS)

Output produced by METARs form (1854 UTC 02 September 2014)
found at http://aviationweather.gov/adds/metars/
 
KBHB 021739Z 0218/0318 12006KT P6SM OVC006 
     FM021900 15006KT P6SM BKN010 
     FM022200 17008KT 5SM BR OVC008 
     FM030600 19005KT 1/2SM -SHRA FG OVC002 
     FM031000 22004KT P6SM OVC002 
     FM031400 26007KT P6SM SCT008 AMD LTD TO CLD VIS AND WIND